createdAt,value
2017-12-24T00:00:23.076Z,8.84
2017-12-24T00:01:31.903Z,8.95
2017-12-24T00:02:40.731Z,8.86
2017-12-24T00:03:49.608Z,8.84
2017-12-24T00:04:58.438Z,9.08
2017-12-24T00:06:07.267Z,8.98
2017-12-24T00:07:16.373Z,8.94
2017-12-24T00:08:25.200Z,9.14
2017-12-24T00:09:34.182Z,9.08
2017-12-24T00:10:43.008Z,9.11
2017-12-24T00:11:51.834Z,8.98
2017-12-24T00:13:00.663Z,8.94
2017-12-24T00:14:09.491Z,8.98
2017-12-24T00:15:18.742Z,8.92
2017-12-24T00:16:27.842Z,8.96
2017-12-24T00:17:36.668Z,8.95
2017-12-24T00:18:45.499Z,8.87
2017-12-24T00:19:54.329Z,9.02
2017-12-24T00:21:03.158Z,9.14
2017-12-24T00:22:11.987Z,8.92
2017-12-24T00:23:20.815Z,9.11
2017-12-24T00:24:29.644Z,9.24
2017-12-24T00:25:38.750Z,9.02
2017-12-24T00:26:47.728Z,9.26
2017-12-24T00:27:56.558Z,9.13
2017-12-24T00:29:05.667Z,9.08
2017-12-24T00:30:14.494Z,8.98
2017-12-24T00:31:23.324Z,9.11
2017-12-24T00:32:32.249Z,9.1
2017-12-24T00:33:41.632Z,8.95
2017-12-24T00:34:50.458Z,8.94
2017-12-24T00:35:59.288Z,9.08
2017-12-24T00:37:08.117Z,9.11
2017-12-24T00:38:16.945Z,9.1
2017-12-24T00:39:25.776Z,9.02
2017-12-24T00:40:34.604Z,8.96
2017-12-24T00:41:43.432Z,9.08
2017-12-24T00:42:52.263Z,8.92
2017-12-24T00:44:01.092Z,9.1
2017-12-24T00:45:09.921Z,9.05
2017-12-24T00:46:18.749Z,9.08
2017-12-24T00:47:27.576Z,9.23
2017-12-24T00:48:36.405Z,9.05
2017-12-24T00:49:45.234Z,8.98
2017-12-24T00:50:54.062Z,9.01
2017-12-24T00:52:03.437Z,9.01
2017-12-24T00:53:12.267Z,9.08
2017-12-24T00:54:21.096Z,9.04
2017-12-24T00:55:29.928Z,9.2
2017-12-24T00:56:39.024Z,9.39
2017-12-24T00:57:47.853Z,9.13
2017-12-24T00:58:56.681Z,9.11
2017-12-24T01:00:05.508Z,9.2
2017-12-24T01:01:14.638Z,9.14
2017-12-24T01:02:23.465Z,9.08
2017-12-24T01:03:32.567Z,8.95
2017-12-24T01:04:41.398Z,9.08
2017-12-24T01:05:50.225Z,9.02
2017-12-24T01:06:59.204Z,8.95
2017-12-24T01:08:08.035Z,8.94
2017-12-24T01:09:16.866Z,8.95
2017-12-24T01:10:25.694Z,9.14
2017-12-24T01:11:34.522Z,9.1
2017-12-24T01:12:43.351Z,9.04
2017-12-24T01:13:52.179Z,9.2
2017-12-24T01:15:01.012Z,9.1
2017-12-24T01:16:09.840Z,9.08
2017-12-24T01:17:18.668Z,9.18
2017-12-24T01:18:27.744Z,9.05
2017-12-24T01:19:36.572Z,9.04
2017-12-24T01:20:45.402Z,9.04
2017-12-24T01:21:54.229Z,9.15
2017-12-24T01:23:03.055Z,9.13
2017-12-24T01:24:11.891Z,9.17
2017-12-24T01:25:20.718Z,9.11
2017-12-24T01:26:29.545Z,9.23
2017-12-24T01:27:38.374Z,9.31
2017-12-24T01:28:47.206Z,9.23
2017-12-24T01:29:56.453Z,9.31
2017-12-24T01:31:05.282Z,9.24
2017-12-24T01:32:14.110Z,9.28
2017-12-24T01:33:22.935Z,9.2
2017-12-24T01:34:31.764Z,9.15
2017-12-24T01:35:40.642Z,9.21
2017-12-24T01:36:49.471Z,9.24
2017-12-24T01:37:58.295Z,9.18
2017-12-24T01:39:07.124Z,9.24
2017-12-24T01:40:15.952Z,9.28
2017-12-24T01:41:24.937Z,9.26
2017-12-24T01:42:33.766Z,9.2
2017-12-24T01:43:42.865Z,9.21
2017-12-24T01:44:51.970Z,9.28
2017-12-24T01:46:00.798Z,9.18
2017-12-24T01:47:09.928Z,9.32
2017-12-24T01:48:19.315Z,9.28
2017-12-24T01:49:28.418Z,9.32
2017-12-24T01:50:37.523Z,9.23
2017-12-24T01:51:46.355Z,9.33
2017-12-24T01:52:55.184Z,9.26
2017-12-24T01:54:04.010Z,9.1
2017-12-24T01:55:12.840Z,9.13
2017-12-24T01:56:21.667Z,9.1
2017-12-24T01:57:30.495Z,9.21
2017-12-24T01:58:39.650Z,9.23
2017-12-24T01:59:48.480Z,9.38
2017-12-24T02:00:57.309Z,9.43
2017-12-24T02:02:06.137Z,9.23
2017-12-24T02:03:14.966Z,9.23
2017-12-24T02:04:24.049Z,9.11
2017-12-24T02:05:32.872Z,9.21
2017-12-24T02:06:41.701Z,9.1
2017-12-24T02:07:50.529Z,9.2
2017-12-24T02:08:59.355Z,9.11
2017-12-24T02:10:08.233Z,9.28
2017-12-24T02:11:17.063Z,9.21
2017-12-24T02:12:25.890Z,9.23
2017-12-24T02:13:34.719Z,9.23
2017-12-24T02:14:43.547Z,9.21
2017-12-24T02:15:52.372Z,9.05
2017-12-24T02:17:01.202Z,9.23
2017-12-24T02:18:10.029Z,9.17
2017-12-24T02:19:18.860Z,9.29
2017-12-24T02:20:27.688Z,9.13
2017-12-24T02:21:36.567Z,9.18
2017-12-24T02:22:45.397Z,9.24
2017-12-24T02:23:54.223Z,9.24
2017-12-24T02:25:03.052Z,9.24
2017-12-24T02:26:12.156Z,9.2
2017-12-24T02:27:21.262Z,9.18
2017-12-24T02:28:30.092Z,9.23
2017-12-24T02:29:39.193Z,9.26
2017-12-24T02:30:48.019Z,9.23
2017-12-24T02:31:57.126Z,9.2
2017-12-24T02:33:05.952Z,9.13
2017-12-24T02:34:14.781Z,9.05
2017-12-24T02:35:23.608Z,9.23
2017-12-24T02:36:32.488Z,9.21
2017-12-24T02:37:41.324Z,9.18
2017-12-24T02:38:50.156Z,9.13
2017-12-24T02:39:59.000Z,9.15
2017-12-24T02:41:07.820Z,9.2
2017-12-24T02:42:16.921Z,9.31
2017-12-24T02:43:25.751Z,9.26
2017-12-24T02:44:34.681Z,9.14
2017-12-24T02:45:43.514Z,9.15
2017-12-24T02:46:52.342Z,9.28
2017-12-24T02:48:01.172Z,9.14
2017-12-24T02:49:10.004Z,9.21
2017-12-24T02:50:18.928Z,9.32
2017-12-24T02:51:27.755Z,9.24
2017-12-24T02:52:36.859Z,9.2
2017-12-24T02:53:45.686Z,9.18
2017-12-24T02:54:54.515Z,9.1
2017-12-24T02:56:03.501Z,9.21
2017-12-24T02:57:12.320Z,9.17
2017-12-24T02:58:21.146Z,9.21
2017-12-24T02:59:30.253Z,9.05
2017-12-24T03:00:39.083Z,9.2
2017-12-24T03:01:48.208Z,9.24
2017-12-24T03:02:57.038Z,9.26
2017-12-24T03:04:05.865Z,9.21
2017-12-24T03:05:14.973Z,9.23
2017-12-24T03:06:23.795Z,9.17
2017-12-24T03:07:32.725Z,9.2
2017-12-24T03:08:41.555Z,9.26
2017-12-24T03:09:50.382Z,9.17
2017-12-24T03:10:59.211Z,9.26
2017-12-24T03:12:08.038Z,9.21
2017-12-24T03:13:16.864Z,9.08
2017-12-24T03:14:25.692Z,9.24
2017-12-24T03:15:34.525Z,9.18
2017-12-24T03:16:43.348Z,9.28
2017-12-24T03:17:52.176Z,9.21
2017-12-24T03:19:01.003Z,9.2
2017-12-24T03:20:09.829Z,9.21
2017-12-24T03:21:18.654Z,9.31
2017-12-24T03:22:27.481Z,9.17
2017-12-24T03:23:36.315Z,9.28
2017-12-24T03:24:45.564Z,9.24
2017-12-24T03:25:54.664Z,9.26
2017-12-24T03:27:03.492Z,9.31
2017-12-24T03:28:12.322Z,9.24
2017-12-24T03:29:21.150Z,9.28
2017-12-24T03:30:30.133Z,9.26
2017-12-24T03:31:38.964Z,9.2
2017-12-24T03:32:47.804Z,9.31
2017-12-24T03:33:56.625Z,9.2
2017-12-24T03:35:05.732Z,9.26
2017-12-24T03:36:14.836Z,9.23
2017-12-24T03:37:23.940Z,9.24
2017-12-24T03:38:32.765Z,9.2
2017-12-24T03:39:41.594Z,9.18
2017-12-24T03:40:50.423Z,9.08
2017-12-24T03:41:59.349Z,9.05
2017-12-24T03:43:08.179Z,9.21
2017-12-24T03:44:17.009Z,9.28
2017-12-24T03:45:25.839Z,9.28
2017-12-24T03:46:34.943Z,9.26
2017-12-24T03:47:43.820Z,9.17
2017-12-24T03:48:52.649Z,9.15
2017-12-24T03:50:01.478Z,9.14
2017-12-24T03:51:10.582Z,9.11
2017-12-24T03:52:19.414Z,9.21
2017-12-24T03:53:28.292Z,9.26
2017-12-24T03:54:37.127Z,9.1
2017-12-24T03:55:45.949Z,9.04
2017-12-24T03:56:54.777Z,9.18
2017-12-24T03:58:03.607Z,9.23
2017-12-24T03:59:12.435Z,9.23
2017-12-24T04:00:21.264Z,9.2
2017-12-24T04:01:30.089Z,9.04
2017-12-24T04:02:38.916Z,9.24
2017-12-24T04:03:47.743Z,9.15
2017-12-24T04:04:56.721Z,9.28
2017-12-24T04:06:05.547Z,9.43
2017-12-24T04:07:14.374Z,9.21
2017-12-24T04:08:23.202Z,9.28
2017-12-24T04:09:32.057Z,9.18
2017-12-24T04:10:41.008Z,9.17
2017-12-24T04:11:50.108Z,9.24
2017-12-24T04:12:58.937Z,9.38
2017-12-24T04:14:07.761Z,9.21
2017-12-24T04:15:16.590Z,9.14
2017-12-24T04:16:25.419Z,9.31
2017-12-24T04:17:34.248Z,9.23
2017-12-24T04:18:43.075Z,9.1
2017-12-24T04:19:51.903Z,9.23
2017-12-24T04:21:00.733Z,9.2
2017-12-24T04:22:09.710Z,9.23
2017-12-24T04:23:18.540Z,9.23
2017-12-24T04:24:27.366Z,9.18
2017-12-24T04:25:36.194Z,9.21
2017-12-24T04:26:45.022Z,9.2
2017-12-24T04:27:53.860Z,9.11
2017-12-24T04:29:02.683Z,9.15
2017-12-24T04:30:11.509Z,9.2
2017-12-24T04:31:20.895Z,9.28
2017-12-24T04:32:29.724Z,9.11
2017-12-24T04:33:39.131Z,9.26
2017-12-24T04:34:47.955Z,9.26
2017-12-24T04:35:56.782Z,9.23
2017-12-24T04:37:05.610Z,9.24
2017-12-24T04:38:14.436Z,9.04
2017-12-24T04:39:23.364Z,9.15
2017-12-24T04:40:32.192Z,9.2
2017-12-24T04:41:41.020Z,9.23
2017-12-24T04:42:49.856Z,9.26
2017-12-24T04:43:58.679Z,9.35
2017-12-24T04:45:07.705Z,9.21
2017-12-24T04:46:16.536Z,9.08
2017-12-24T04:47:25.363Z,9.2
2017-12-24T04:48:34.192Z,9.23
2017-12-24T04:49:43.022Z,9.2
2017-12-24T04:50:51.900Z,9.21
2017-12-24T04:52:00.729Z,9.13
2017-12-24T04:53:09.559Z,9.13
2017-12-24T04:54:18.385Z,9.08
2017-12-24T04:55:27.217Z,9.11
2017-12-24T04:56:36.150Z,9.26
2017-12-24T04:57:44.977Z,9.21
2017-12-24T04:58:53.804Z,9.11
2017-12-24T05:00:02.633Z,9.13
2017-12-24T05:01:11.463Z,9.04
2017-12-24T05:02:20.391Z,9.02
2017-12-24T05:03:29.220Z,8.99
2017-12-24T05:04:38.050Z,9.2
2017-12-24T05:05:46.880Z,9.28
2017-12-24T05:06:55.706Z,9.38
2017-12-24T05:08:04.583Z,9.31
2017-12-24T05:09:13.408Z,9.32
2017-12-24T05:10:22.239Z,9.26
2017-12-24T05:11:31.068Z,9.33
2017-12-24T05:12:40.178Z,9.08
2017-12-24T05:13:49.491Z,9.1
2017-12-24T05:14:58.320Z,9.11
2017-12-24T05:16:07.148Z,9.11
2017-12-24T05:17:15.976Z,9.08
2017-12-24T05:18:24.805Z,9.05
2017-12-24T05:19:33.784Z,9.1
2017-12-24T05:20:42.612Z,9.05
2017-12-24T05:21:51.443Z,9.04
2017-12-24T05:23:00.269Z,8.98
2017-12-24T05:24:09.093Z,9.08
2017-12-24T05:25:18.220Z,9.08
2017-12-24T05:26:27.046Z,9.13
2017-12-24T05:27:35.876Z,9.08
2017-12-24T05:28:44.706Z,9.21
2017-12-24T05:29:53.803Z,9.05
2017-12-24T05:31:02.632Z,9.05
2017-12-24T05:32:11.461Z,9.02
2017-12-24T05:33:20.289Z,9.05
2017-12-24T05:34:29.390Z,9.01
2017-12-24T05:35:38.221Z,9.1
2017-12-24T05:36:47.303Z,9.24
2017-12-24T05:37:56.131Z,9.26
2017-12-24T05:39:04.959Z,9.11
2017-12-24T05:40:13.786Z,8.95
2017-12-24T05:41:22.615Z,8.96
2017-12-24T05:42:31.542Z,9.14
2017-12-24T05:43:40.370Z,9.08
2017-12-24T05:44:49.203Z,9.04
2017-12-24T05:45:58.025Z,9.13
2017-12-24T05:47:06.853Z,9.23
2017-12-24T05:48:15.732Z,9.11
2017-12-24T05:49:24.562Z,9.13
2017-12-24T05:50:33.391Z,9.21
2017-12-24T05:51:42.219Z,9.17
2017-12-24T05:52:51.048Z,9.1
2017-12-24T05:54:00.026Z,9.05
2017-12-24T05:55:08.852Z,9.26
2017-12-24T05:56:17.682Z,9.13
2017-12-24T05:57:26.787Z,9.13
2017-12-24T05:58:35.888Z,9.04
2017-12-24T05:59:44.713Z,9.13
2017-12-24T06:00:53.544Z,9.17
2017-12-24T06:02:02.370Z,9.1
2017-12-24T06:03:11.198Z,9.08
2017-12-24T06:04:20.027Z,8.99
2017-12-24T06:05:28.908Z,8.96
2017-12-24T06:06:37.778Z,9.11
2017-12-24T06:07:46.634Z,9.1
2017-12-24T06:08:55.464Z,9.02
2017-12-24T06:10:04.292Z,9.1
2017-12-24T06:11:13.471Z,8.98
2017-12-24T06:12:22.303Z,8.91
2017-12-24T06:13:31.133Z,9.11
2017-12-24T06:14:39.960Z,9.04
2017-12-24T06:15:48.789Z,9.08
2017-12-24T06:16:57.620Z,9.14
2017-12-24T06:18:06.448Z,9.05
2017-12-24T06:19:15.275Z,8.91
2017-12-24T06:20:24.104Z,9.08
2017-12-24T06:21:32.934Z,9.02
2017-12-24T06:22:41.914Z,8.99
2017-12-24T06:23:50.740Z,8.92
2017-12-24T06:24:59.570Z,8.96
2017-12-24T06:26:08.401Z,8.99
2017-12-24T06:27:17.232Z,9.11
2017-12-24T06:28:26.062Z,8.95
2017-12-24T06:29:34.893Z,9.01
2017-12-24T06:30:43.722Z,9.21
2017-12-24T06:31:52.555Z,8.91
2017-12-24T06:33:01.385Z,8.94
2017-12-24T06:34:10.361Z,8.96
2017-12-24T06:35:19.192Z,9.13
2017-12-24T06:36:28.021Z,8.98
2017-12-24T06:37:36.849Z,9.01
2017-12-24T06:38:45.677Z,9.08
2017-12-24T06:39:54.606Z,8.98
2017-12-24T06:41:03.438Z,9.02
2017-12-24T06:42:12.543Z,8.98
2017-12-24T06:43:21.371Z,8.98
2017-12-24T06:44:30.201Z,8.95
2017-12-24T06:45:39.034Z,8.92
2017-12-24T06:46:47.872Z,8.91
2017-12-24T06:47:56.698Z,8.91
2017-12-24T06:49:05.531Z,8.98
2017-12-24T06:50:14.358Z,9.01
2017-12-24T06:51:23.242Z,8.92
2017-12-24T06:52:32.077Z,8.99
2017-12-24T06:53:40.906Z,8.98
2017-12-24T06:54:49.736Z,8.96
2017-12-24T06:55:58.568Z,8.96
2017-12-24T06:57:07.496Z,8.99
2017-12-24T06:58:16.325Z,9.02
2017-12-24T06:59:25.157Z,8.96
2017-12-24T07:00:34.308Z,8.95
2017-12-24T07:01:43.138Z,8.92
2017-12-24T07:02:52.107Z,8.96
2017-12-24T07:04:00.896Z,9.05
2017-12-24T07:05:09.726Z,9.24
2017-12-24T07:06:18.565Z,9.05
2017-12-24T07:07:27.394Z,9.23
2017-12-24T07:08:36.227Z,9.13
2017-12-24T07:09:45.055Z,9.24
2017-12-24T07:10:54.160Z,9.14
2017-12-24T07:12:03.264Z,9.08
2017-12-24T07:13:12.094Z,8.99
2017-12-24T07:14:21.079Z,8.95
2017-12-24T07:15:29.910Z,8.96
2017-12-24T07:16:38.743Z,9.01
2017-12-24T07:17:47.574Z,8.95
2017-12-24T07:18:56.398Z,9.05
2017-12-24T07:20:05.534Z,9.02
2017-12-24T07:21:14.364Z,9.08
2017-12-24T07:22:23.193Z,9.11
2017-12-24T07:23:32.021Z,9.08
2017-12-24T07:24:40.861Z,8.98
2017-12-24T07:25:49.776Z,8.84
2017-12-24T07:26:58.604Z,8.91
2017-12-24T07:28:07.434Z,9.01
2017-12-24T07:29:16.263Z,8.87
2017-12-24T07:30:25.092Z,8.87
2017-12-24T07:31:33.918Z,8.99
2017-12-24T07:32:43.029Z,9.11
2017-12-24T07:33:51.857Z,8.95
2017-12-24T07:35:00.687Z,9.02
2017-12-24T07:36:09.518Z,8.96
2017-12-24T07:37:19.020Z,8.96
2017-12-24T07:38:27.849Z,9.08
2017-12-24T07:39:36.680Z,9.02
2017-12-24T07:40:45.617Z,9.11
2017-12-24T07:41:54.439Z,9.13
2017-12-24T07:43:03.844Z,9.08
2017-12-24T07:44:12.672Z,8.91
2017-12-24T07:45:21.501Z,9.08
2017-12-24T07:46:30.603Z,8.89
2017-12-24T07:47:39.433Z,8.87
2017-12-24T07:48:48.263Z,8.95
2017-12-24T07:49:57.098Z,8.89
2017-12-24T07:51:05.922Z,9.08
2017-12-24T07:52:14.749Z,8.96
2017-12-24T07:53:23.580Z,8.86
2017-12-24T07:54:32.507Z,8.92
2017-12-24T07:55:41.613Z,8.87
2017-12-24T07:56:50.991Z,8.98
2017-12-24T07:57:59.820Z,9.02
2017-12-24T07:59:08.652Z,9.05
2017-12-24T08:00:17.856Z,8.94
2017-12-24T08:01:26.684Z,8.96
2017-12-24T08:02:35.514Z,9.01
2017-12-24T08:03:44.345Z,8.86
2017-12-24T08:04:53.176Z,8.91
2017-12-24T08:06:02.003Z,8.87
2017-12-24T08:07:10.831Z,8.87
2017-12-24T08:08:19.663Z,8.89
2017-12-24T08:09:28.494Z,9.01
2017-12-24T08:10:37.513Z,9.05
2017-12-24T08:11:46.616Z,9.05
2017-12-24T08:12:55.446Z,8.92
2017-12-24T08:14:04.273Z,8.95
2017-12-24T08:15:13.102Z,8.87
2017-12-24T08:16:21.930Z,8.94
2017-12-24T08:17:30.763Z,8.92
2017-12-24T08:18:39.590Z,8.83
2017-12-24T08:19:48.423Z,8.77
2017-12-24T08:20:57.247Z,8.83
2017-12-24T08:22:06.076Z,8.89
2017-12-24T08:23:14.903Z,9.04
2017-12-24T08:24:24.005Z,9.01
2017-12-24T08:25:32.833Z,8.96
2017-12-24T08:26:41.814Z,9.01
2017-12-24T08:27:50.647Z,8.73
2017-12-24T08:28:59.479Z,9.13
2017-12-24T08:30:08.309Z,9.01
2017-12-24T08:31:17.133Z,8.81
2017-12-24T08:32:25.963Z,8.76
2017-12-24T08:33:34.792Z,8.86
2017-12-24T08:34:43.620Z,8.76
2017-12-24T08:35:52.449Z,8.86
2017-12-24T08:37:01.580Z,8.81
2017-12-24T08:38:10.412Z,8.86
2017-12-24T08:39:19.289Z,8.87
2017-12-24T08:40:28.401Z,8.84
2017-12-24T08:41:37.232Z,8.76
2017-12-24T08:42:46.641Z,8.95
2017-12-24T08:43:55.745Z,8.89
2017-12-24T08:45:04.577Z,8.79
2017-12-24T08:46:13.408Z,8.73
2017-12-24T08:47:22.241Z,8.77
2017-12-24T08:48:31.071Z,8.92
2017-12-24T08:49:40.389Z,8.96
2017-12-24T08:50:50.334Z,8.77
2017-12-24T08:51:59.990Z,8.76
2017-12-24T08:53:09.500Z,8.71
2017-12-24T08:54:18.826Z,8.74
2017-12-24T08:55:27.836Z,8.79
2017-12-24T08:56:36.976Z,8.83
2017-12-24T08:57:45.871Z,8.77
2017-12-24T08:58:54.704Z,8.87
2017-12-24T09:00:03.651Z,8.79
2017-12-24T09:01:12.529Z,8.74
2017-12-24T09:02:21.386Z,8.76
2017-12-24T09:03:30.215Z,8.76
2017-12-24T09:04:39.048Z,8.79
2017-12-24T09:05:47.880Z,8.73
2017-12-24T09:06:56.711Z,8.74
2017-12-24T09:08:05.857Z,8.76
2017-12-24T09:09:15.003Z,8.77
2017-12-24T09:10:23.831Z,8.84
2017-12-24T09:11:32.966Z,8.83
2017-12-24T09:12:41.802Z,8.92
2017-12-24T09:13:52.314Z,8.86
2017-12-24T09:15:01.558Z,8.74
2017-12-24T09:16:10.832Z,8.8
2017-12-24T09:17:20.072Z,8.83
2017-12-24T09:18:29.247Z,8.79
2017-12-24T09:19:38.420Z,8.76
2017-12-24T09:20:47.773Z,8.86
2017-12-24T09:21:56.700Z,8.73
2017-12-24T09:23:05.832Z,8.95
2017-12-24T09:24:14.665Z,8.95
2017-12-24T09:25:23.504Z,9.02
2017-12-24T09:26:32.616Z,9.04
2017-12-24T09:27:41.445Z,8.96
2017-12-24T09:28:50.274Z,8.94
2017-12-24T09:29:59.105Z,8.8
2017-12-24T09:31:07.935Z,8.94
2017-12-24T09:32:16.768Z,8.77
2017-12-24T09:33:25.599Z,8.73
2017-12-24T09:34:34.429Z,8.65
2017-12-24T09:35:43.259Z,8.66
2017-12-24T09:36:52.088Z,8.99
2017-12-24T09:38:00.918Z,8.95
2017-12-24T09:39:10.028Z,8.86
2017-12-24T09:40:19.134Z,8.66
2017-12-24T09:41:27.964Z,8.59
2017-12-24T09:42:36.794Z,8.61
2017-12-24T09:43:45.622Z,8.61
2017-12-24T09:44:54.454Z,8.73
2017-12-24T09:46:03.533Z,8.74
2017-12-24T09:47:12.361Z,8.74
2017-12-24T09:48:21.191Z,8.61
2017-12-24T09:49:30.026Z,8.68
2017-12-24T09:50:38.850Z,8.59
2017-12-24T09:51:47.829Z,8.65
2017-12-24T09:52:56.661Z,8.8
2017-12-24T09:54:05.489Z,8.76
2017-12-24T09:55:14.318Z,8.73
2017-12-24T09:56:23.147Z,8.66
2017-12-24T09:57:32.227Z,8.76
2017-12-24T09:58:41.054Z,8.73
2017-12-24T09:59:49.883Z,8.66
2017-12-24T10:00:58.721Z,8.59
2017-12-24T10:02:07.829Z,8.63
2017-12-24T10:03:16.713Z,8.66
2017-12-24T10:04:25.540Z,8.63
2017-12-24T10:05:34.372Z,8.95
2017-12-24T10:06:43.474Z,8.8
2017-12-24T10:07:52.306Z,8.73
2017-12-24T10:09:01.135Z,8.66
2017-12-24T10:10:09.961Z,8.71
2017-12-24T10:11:19.066Z,8.71
2017-12-24T10:12:28.178Z,8.94
2017-12-24T10:13:37.004Z,8.7
2017-12-24T10:14:46.131Z,8.62
2017-12-24T10:15:54.963Z,8.63
2017-12-24T10:17:03.794Z,8.62
2017-12-24T10:18:12.626Z,8.63
2017-12-24T10:19:21.460Z,8.56
2017-12-24T10:20:30.719Z,8.61
2017-12-24T10:21:39.544Z,8.55
2017-12-24T10:22:48.373Z,8.58
2017-12-24T10:23:57.203Z,8.62
2017-12-24T10:25:06.307Z,8.62
2017-12-24T10:26:15.187Z,8.63
2017-12-24T10:27:24.018Z,8.56
2017-12-24T10:28:32.846Z,8.52
2017-12-24T10:29:41.675Z,8.56
2017-12-24T10:30:50.505Z,8.59
2017-12-24T10:31:59.484Z,8.59
2017-12-24T10:33:08.416Z,8.56
2017-12-24T10:34:17.248Z,8.62
2017-12-24T10:35:26.079Z,8.59
2017-12-24T10:36:34.908Z,8.59
2017-12-24T10:37:44.313Z,8.59
2017-12-24T10:38:53.151Z,8.55
2017-12-24T10:40:02.271Z,8.59
2017-12-24T10:41:11.385Z,8.45
2017-12-24T10:42:20.215Z,8.47
2017-12-24T10:43:29.145Z,8.58
2017-12-24T10:44:37.976Z,8.59
2017-12-24T10:45:46.807Z,8.58
2017-12-24T10:46:55.637Z,8.5
2017-12-24T10:48:04.467Z,8.5
2017-12-24T10:49:13.444Z,8.56
2017-12-24T10:50:22.277Z,8.53
2017-12-24T10:51:31.106Z,8.45
2017-12-24T10:52:39.974Z,8.59
2017-12-24T10:53:48.846Z,8.45
2017-12-24T10:54:57.728Z,8.48
2017-12-24T10:56:06.560Z,8.45
2017-12-24T10:57:15.667Z,8.52
2017-12-24T10:58:24.531Z,8.48
2017-12-24T10:59:33.637Z,8.44
2017-12-24T11:00:42.566Z,8.47
2017-12-24T11:01:51.400Z,8.45
2017-12-24T11:03:00.225Z,8.43
2017-12-24T11:04:09.330Z,8.47
2017-12-24T11:05:18.157Z,8.45
2017-12-24T11:06:27.286Z,8.44
2017-12-24T11:07:36.136Z,8.4
2017-12-24T11:08:44.964Z,8.45
2017-12-24T11:09:53.790Z,8.38
2017-12-24T11:11:02.620Z,8.47
2017-12-24T11:12:11.601Z,8.5
2017-12-24T11:13:20.630Z,8.45
2017-12-24T11:14:29.461Z,8.47
2017-12-24T11:15:38.297Z,8.5
2017-12-24T11:16:47.121Z,8.48
2017-12-24T11:17:56.101Z,8.45
2017-12-24T11:19:04.931Z,8.48
2017-12-24T11:20:14.035Z,8.53
2017-12-24T11:21:22.869Z,8.45
2017-12-24T11:22:31.698Z,8.53
2017-12-24T11:23:40.528Z,8.47
2017-12-24T11:24:49.636Z,8.43
2017-12-24T11:25:58.462Z,8.43
2017-12-24T11:27:07.296Z,8.48
2017-12-24T11:28:16.123Z,8.41
2017-12-24T11:29:25.053Z,8.44
2017-12-24T11:30:34.207Z,8.43
2017-12-24T11:31:42.989Z,8.41
2017-12-24T11:32:51.818Z,8.4
2017-12-24T11:34:00.646Z,8.45
2017-12-24T11:35:09.475Z,8.47
2017-12-24T11:36:18.305Z,8.55
2017-12-24T11:37:27.136Z,8.47
2017-12-24T11:38:35.966Z,8.45
2017-12-24T11:39:44.800Z,8.56
2017-12-24T11:40:53.783Z,8.52
2017-12-24T11:42:02.612Z,8.48
2017-12-24T11:43:11.720Z,8.43
2017-12-24T11:44:20.551Z,8.56
2017-12-24T11:45:29.381Z,8.5
2017-12-24T11:46:38.362Z,8.48
2017-12-24T11:47:47.193Z,8.59
2017-12-24T11:48:56.021Z,8.59
2017-12-24T11:50:04.851Z,8.5
2017-12-24T11:51:13.964Z,8.58
2017-12-24T11:52:22.894Z,8.56
2017-12-24T11:53:31.725Z,8.61
2017-12-24T11:54:40.553Z,8.56
2017-12-24T11:55:49.384Z,8.59
2017-12-24T11:56:58.215Z,8.56
2017-12-24T11:58:07.195Z,8.61
2017-12-24T11:59:16.023Z,8.59
2017-12-24T12:00:24.859Z,8.58
2017-12-24T12:01:33.692Z,8.59
2017-12-24T12:02:42.528Z,8.62
2017-12-24T12:03:51.364Z,8.55
2017-12-24T12:05:00.186Z,8.63
2017-12-24T12:06:09.015Z,8.63
2017-12-24T12:07:17.844Z,8.63
2017-12-24T12:08:26.949Z,8.55
2017-12-24T12:09:35.931Z,8.66
2017-12-24T12:10:44.761Z,8.7
2017-12-24T12:11:53.587Z,8.66
2017-12-24T12:13:02.417Z,8.7
2017-12-24T12:14:11.247Z,8.62
2017-12-24T12:15:20.232Z,8.65
2017-12-24T12:16:29.059Z,8.7
2017-12-24T12:17:37.885Z,8.65
2017-12-24T12:18:46.723Z,8.73
2017-12-24T12:19:56.107Z,8.7
2017-12-24T12:21:05.093Z,8.63
2017-12-24T12:22:14.042Z,8.73
2017-12-24T12:23:24.100Z,8.65
2017-12-24T12:24:33.208Z,8.65
2017-12-24T12:25:42.311Z,8.61
2017-12-24T12:26:51.543Z,8.63
2017-12-24T12:28:00.392Z,8.7
2017-12-24T12:29:09.224Z,8.68
2017-12-24T12:30:18.107Z,8.68
2017-12-24T12:31:26.936Z,8.7
2017-12-24T12:32:35.815Z,8.65
2017-12-24T12:33:44.645Z,8.71
2017-12-24T12:34:53.474Z,8.77
2017-12-24T12:36:02.303Z,8.84
2017-12-24T12:37:11.132Z,8.76
2017-12-24T12:38:20.117Z,8.73
2017-12-24T12:39:29.220Z,8.77
2017-12-24T12:40:38.057Z,8.77
2017-12-24T12:41:46.885Z,8.8
2017-12-24T12:42:55.718Z,8.76
2017-12-24T12:44:04.700Z,8.87
2017-12-24T12:45:13.524Z,8.79
2017-12-24T12:46:22.365Z,8.77
2017-12-24T12:47:31.186Z,8.73
2017-12-24T12:48:40.019Z,8.77
2017-12-24T12:49:48.998Z,8.76
2017-12-24T12:50:57.827Z,8.8
2017-12-24T12:52:06.658Z,8.77
2017-12-24T12:53:15.491Z,8.74
2017-12-24T12:54:24.323Z,8.76
2017-12-24T12:55:33.453Z,8.76
2017-12-24T12:56:42.282Z,8.81
2017-12-24T12:57:51.389Z,8.84
2017-12-24T12:59:00.220Z,8.87
2017-12-24T13:00:09.050Z,8.77
2017-12-24T13:01:17.983Z,8.77
2017-12-24T13:02:26.812Z,8.83
2017-12-24T13:03:35.641Z,8.86
2017-12-24T13:04:44.472Z,8.92
2017-12-24T13:05:53.302Z,8.86
2017-12-24T13:07:02.409Z,8.84
2017-12-24T13:08:11.240Z,8.84
2017-12-24T13:09:20.120Z,9.05
2017-12-24T13:10:28.949Z,8.92
2017-12-24T13:11:37.779Z,8.98
2017-12-24T13:12:46.711Z,8.94
2017-12-24T13:13:55.545Z,8.92
2017-12-24T13:15:04.375Z,8.86
2017-12-24T13:16:13.205Z,8.96
2017-12-24T13:17:22.037Z,9.02
2017-12-24T13:18:30.871Z,8.98
2017-12-24T13:19:39.697Z,8.99
2017-12-24T13:20:48.530Z,8.95
2017-12-24T13:21:57.357Z,8.96
2017-12-24T13:23:06.187Z,8.89
2017-12-24T13:24:15.015Z,8.98
2017-12-24T13:25:23.848Z,8.99
2017-12-24T13:26:32.956Z,8.95
2017-12-24T13:27:41.785Z,8.95
2017-12-24T13:28:50.617Z,8.89
2017-12-24T13:29:59.450Z,9.02
2017-12-24T13:31:08.283Z,8.95
2017-12-24T13:32:17.112Z,8.96
2017-12-24T13:33:25.941Z,8.91
2017-12-24T13:34:35.454Z,8.91
2017-12-24T13:35:44.286Z,8.96
2017-12-24T13:36:53.117Z,8.96
2017-12-24T13:38:01.946Z,8.96
2017-12-24T13:39:10.778Z,9.02
2017-12-24T13:40:19.609Z,8.99
2017-12-24T13:41:28.588Z,8.98
2017-12-24T13:42:37.421Z,9.01
2017-12-24T13:43:46.253Z,9.02
2017-12-24T13:44:55.359Z,8.98
2017-12-24T13:46:04.190Z,9.04
2017-12-24T13:47:13.321Z,8.98
2017-12-24T13:48:22.151Z,9.04
2017-12-24T13:49:30.984Z,8.99
2017-12-24T13:50:39.814Z,9.11
2017-12-24T13:51:48.644Z,9.08
2017-12-24T13:52:57.479Z,9.02
2017-12-24T13:54:06.582Z,8.91
2017-12-24T13:55:15.685Z,8.95
2017-12-24T13:56:24.516Z,8.99
2017-12-24T13:57:33.350Z,9.02
2017-12-24T13:58:42.511Z,8.99
2017-12-24T13:59:51.341Z,8.98
2017-12-24T14:01:00.171Z,8.92
2017-12-24T14:02:09.002Z,8.94
2017-12-24T14:03:17.831Z,8.91
2017-12-24T14:04:26.661Z,9.02
2017-12-24T14:05:35.491Z,9.02
2017-12-24T14:06:44.600Z,8.95
2017-12-24T14:07:53.433Z,8.96
2017-12-24T14:09:02.273Z,8.92
2017-12-24T14:10:11.105Z,8.89
2017-12-24T14:11:19.933Z,9.01
2017-12-24T14:12:28.765Z,9.02
2017-12-24T14:13:37.872Z,8.98
2017-12-24T14:14:46.707Z,9.01
2017-12-24T14:15:55.636Z,8.92
2017-12-24T14:17:04.465Z,8.94
2017-12-24T14:18:13.303Z,8.95
2017-12-24T14:19:22.128Z,8.96
2017-12-24T14:20:30.959Z,8.94
2017-12-24T14:21:40.088Z,8.91
2017-12-24T14:22:48.918Z,8.91
2017-12-24T14:23:57.751Z,9.02
2017-12-24T14:25:06.859Z,9.08
2017-12-24T14:26:15.691Z,8.99
2017-12-24T14:27:25.093Z,8.98
2017-12-24T14:28:33.921Z,8.96
2017-12-24T14:29:42.751Z,8.89
2017-12-24T14:30:51.581Z,8.96
2017-12-24T14:32:00.410Z,8.98
2017-12-24T14:33:09.339Z,8.94
2017-12-24T14:34:18.168Z,8.96
2017-12-24T14:35:26.999Z,9.02
2017-12-24T14:36:35.827Z,9.02
2017-12-24T14:37:44.657Z,8.95
2017-12-24T14:38:53.787Z,8.98
2017-12-24T14:40:02.616Z,8.98
2017-12-24T14:41:11.445Z,8.98
2017-12-24T14:42:20.276Z,8.96
2017-12-24T14:43:29.107Z,8.91
2017-12-24T14:44:37.989Z,8.96
2017-12-24T14:45:46.820Z,8.92
2017-12-24T14:46:55.648Z,8.94
2017-12-24T14:48:04.479Z,8.95
2017-12-24T14:49:13.310Z,8.99
2017-12-24T14:50:22.142Z,8.98
2017-12-24T14:51:30.971Z,8.95
2017-12-24T14:52:39.798Z,8.94
2017-12-24T14:53:48.628Z,8.99
2017-12-24T14:54:57.460Z,8.89
2017-12-24T14:56:06.389Z,9.02
2017-12-24T14:57:15.221Z,8.99
2017-12-24T14:58:24.049Z,9.02
2017-12-24T14:59:32.878Z,9.02
2017-12-24T15:00:41.710Z,8.95
2017-12-24T15:01:50.691Z,9.02
2017-12-24T15:02:59.520Z,8.95
2017-12-24T15:04:08.349Z,9.1
2017-12-24T15:05:17.180Z,9.02
2017-12-24T15:06:26.010Z,8.98
2017-12-24T15:07:35.416Z,8.98
2017-12-24T15:08:44.242Z,8.92
2017-12-24T15:09:53.074Z,8.95
2017-12-24T15:11:01.907Z,8.98
2017-12-24T15:12:10.736Z,8.96
2017-12-24T15:13:19.717Z,8.95
2017-12-24T15:14:28.546Z,9.1
2017-12-24T15:15:37.378Z,9.1
2017-12-24T15:16:46.207Z,9.05
2017-12-24T15:17:55.038Z,9.04
2017-12-24T15:19:03.968Z,8.98